sensor_id;sensor_type;location;lat;lon;timestamp;P1;durP1;ratioP1;P2;durP2;ratioP2
52738;SDS011;52466;40.122;18.318;2022-09-25T00:00:42;106.97;;;55.33;;
52738;SDS011;52466;40.122;18.318;2022-09-25T00:03:50;107.72;;;55.13;;
52738;SDS011;52466;40.122;18.318;2022-09-25T00:06:57;110.40;;;55.10;;
52738;SDS011;52466;40.122;18.318;2022-09-25T00:10:05;109.28;;;54.85;;
52738;SDS011;52466;40.122;18.318;2022-09-25T00:13:14;104.53;;;54.72;;
52738;SDS011;52466;40.122;18.318;2022-09-25T00:16:25;106.43;;;54.85;;
52738;SDS011;52466;40.122;18.318;2022-09-25T00:19:35;107.05;;;55.20;;
52738;SDS011;52466;40.122;18.318;2022-09-25T00:22:57;120.97;;;55.95;;
52738;SDS011;52466;40.122;18.318;2022-09-25T00:26:08;110.07;;;55.40;;
52738;SDS011;52466;40.122;18.318;2022-09-25T00:29:17;110.97;;;55.03;;
52738;SDS011;52466;40.122;18.318;2022-09-25T00:32:26;112.38;;;55.58;;
52738;SDS011;52466;40.122;18.318;2022-09-25T00:35:34;104.55;;;54.83;;
52738;SDS011;52466;40.122;18.318;2022-09-25T00:38:41;110.05;;;55.35;;
52738;SDS011;52466;40.122;18.318;2022-09-25T00:41:49;107.75;;;55.05;;
52738;SDS011;52466;40.122;18.318;2022-09-25T00:44:58;107.18;;;54.67;;
52738;SDS011;52466;40.122;18.318;2022-09-25T00:48:11;104.70;;;54.73;;
52738;SDS011;52466;40.122;18.318;2022-09-25T00:51:23;104.00;;;54.75;;
52738;SDS011;52466;40.122;18.318;2022-09-25T00:54:44;105.53;;;55.05;;
52738;SDS011;52466;40.122;18.318;2022-09-25T00:58:03;107.15;;;54.95;;
52738;SDS011;52466;40.122;18.318;2022-09-25T01:01:12;105.15;;;54.85;;
52738;SDS011;52466;40.122;18.318;2022-09-25T01:04:20;104.38;;;54.83;;
52738;SDS011;52466;40.122;18.318;2022-09-25T01:07:29;105.15;;;54.80;;
52738;SDS011;52466;40.122;18.318;2022-09-25T01:10:39;106.72;;;55.05;;
52738;SDS011;52466;40.122;18.318;2022-09-25T01:13:48;103.95;;;54.75;;
52738;SDS011;52466;40.122;18.318;2022-09-25T01:20:05;105.82;;;55.15;;
52738;SDS011;52466;40.122;18.318;2022-09-25T01:30:15;103.97;;;54.72;;
52738;SDS011;52466;40.122;18.318;2022-09-25T01:33:30;108.72;;;55.03;;
52738;SDS011;52466;40.122;18.318;2022-09-25T01:36:46;105.80;;;55.28;;
52738;SDS011;52466;40.122;18.318;2022-09-25T01:40:05;105.53;;;55.22;;
52738;SDS011;52466;40.122;18.318;2022-09-25T01:43:24;107.22;;;54.67;;
52738;SDS011;52466;40.122;18.318;2022-09-25T01:46:46;106.88;;;54.83;;
52738;SDS011;52466;40.122;18.318;2022-09-25T01:49:58;104.43;;;55.00;;
52738;SDS011;52466;40.122;18.318;2022-09-25T01:53:08;103.93;;;54.67;;
52738;SDS011;52466;40.122;18.318;2022-09-25T01:56:24;106.13;;;55.03;;
52738;SDS011;52466;40.122;18.318;2022-09-25T02:03:26;104.70;;;55.00;;
52738;SDS011;52466;40.122;18.318;2022-09-25T02:06:43;105.60;;;55.22;;
52738;SDS011;52466;40.122;18.318;2022-09-25T02:09:54;104.95;;;55.30;;
52738;SDS011;52466;40.122;18.318;2022-09-25T02:13:07;106.45;;;55.20;;
52738;SDS011;52466;40.122;18.318;2022-09-25T02:16:20;106.15;;;55.10;;
52738;SDS011;52466;40.122;18.318;2022-09-25T02:19:32;108.13;;;55.10;;
52738;SDS011;52466;40.122;18.318;2022-09-25T02:23:43;108.05;;;55.05;;
52738;SDS011;52466;40.122;18.318;2022-09-25T02:26:50;106.68;;;55.03;;
52738;SDS011;52466;40.122;18.318;2022-09-25T02:33:02;107.40;;;55.03;;
52738;SDS011;52466;40.122;18.318;2022-09-25T02:36:19;106.70;;;55.35;;
52738;SDS011;52466;40.122;18.318;2022-09-25T02:39:30;107.32;;;55.40;;
52738;SDS011;52466;40.122;18.318;2022-09-25T02:42:41;106.38;;;55.20;;
52738;SDS011;52466;40.122;18.318;2022-09-25T02:53:29;106.25;;;55.15;;
52738;SDS011;52466;40.122;18.318;2022-09-25T02:57:10;108.75;;;55.38;;
52738;SDS011;52466;40.122;18.318;2022-09-25T03:00:27;105.97;;;55.25;;
52738;SDS011;52466;40.122;18.318;2022-09-25T03:03:36;109.38;;;55.92;;
52738;SDS011;52466;40.122;18.318;2022-09-25T03:06:45;106.75;;;55.75;;
52738;SDS011;52466;40.122;18.318;2022-09-25T03:09:53;106.20;;;55.80;;
52738;SDS011;52466;40.122;18.318;2022-09-25T03:13:13;105.72;;;55.60;;
52738;SDS011;52466;40.122;18.318;2022-09-25T03:16:30;106.32;;;55.63;;
52738;SDS011;52466;40.122;18.318;2022-09-25T03:19:52;108.32;;;55.88;;
52738;SDS011;52466;40.122;18.318;2022-09-25T03:23:00;106.70;;;55.72;;
52738;SDS011;52466;40.122;18.318;2022-09-25T03:26:07;107.50;;;56.03;;
52738;SDS011;52466;40.122;18.318;2022-09-25T03:29:15;105.95;;;55.55;;
52738;SDS011;52466;40.122;18.318;2022-09-25T03:32:23;105.68;;;55.10;;
52738;SDS011;52466;40.122;18.318;2022-09-25T03:35:30;109.40;;;56.25;;
52738;SDS011;52466;40.122;18.318;2022-09-25T03:38:38;107.90;;;55.88;;
52738;SDS011;52466;40.122;18.318;2022-09-25T03:41:47;106.95;;;55.83;;
52738;SDS011;52466;40.122;18.318;2022-09-25T03:44:55;106.70;;;55.65;;
52738;SDS011;52466;40.122;18.318;2022-09-25T03:48:03;108.38;;;55.97;;
52738;SDS011;52466;40.122;18.318;2022-09-25T03:51:10;110.15;;;55.88;;
52738;SDS011;52466;40.122;18.318;2022-09-25T03:54:18;108.60;;;55.78;;
52738;SDS011;52466;40.122;18.318;2022-09-25T03:57:26;107.85;;;55.72;;
52738;SDS011;52466;40.122;18.318;2022-09-25T04:00:34;110.35;;;56.42;;
52738;SDS011;52466;40.122;18.318;2022-09-25T04:03:41;108.35;;;56.00;;
52738;SDS011;52466;40.122;18.318;2022-09-25T04:06:53;107.30;;;55.90;;
52738;SDS011;52466;40.122;18.318;2022-09-25T04:10:00;107.13;;;56.17;;
52738;SDS011;52466;40.122;18.318;2022-09-25T04:13:08;109.80;;;55.78;;
52738;SDS011;52466;40.122;18.318;2022-09-25T04:16:19;106.93;;;56.38;;
52738;SDS011;52466;40.122;18.318;2022-09-25T04:19:27;107.97;;;55.90;;
52738;SDS011;52466;40.122;18.318;2022-09-25T04:22:35;108.95;;;56.28;;
52738;SDS011;52466;40.122;18.318;2022-09-25T04:25:42;108.88;;;56.47;;
52738;SDS011;52466;40.122;18.318;2022-09-25T04:28:51;109.30;;;56.45;;
52738;SDS011;52466;40.122;18.318;2022-09-25T04:31:59;107.78;;;56.28;;
52738;SDS011;52466;40.122;18.318;2022-09-25T04:35:25;108.15;;;55.78;;
52738;SDS011;52466;40.122;18.318;2022-09-25T04:38:33;108.60;;;56.10;;
52738;SDS011;52466;40.122;18.318;2022-09-25T04:41:41;109.88;;;56.47;;
52738;SDS011;52466;40.122;18.318;2022-09-25T04:44:52;107.50;;;55.78;;
52738;SDS011;52466;40.122;18.318;2022-09-25T04:48:02;107.63;;;56.05;;
52738;SDS011;52466;40.122;18.318;2022-09-25T04:51:10;110.97;;;56.28;;
52738;SDS011;52466;40.122;18.318;2022-09-25T04:54:18;107.28;;;56.05;;
52738;SDS011;52466;40.122;18.318;2022-09-25T04:57:25;107.32;;;56.25;;
52738;SDS011;52466;40.122;18.318;2022-09-25T05:00:33;109.50;;;56.13;;
52738;SDS011;52466;40.122;18.318;2022-09-25T05:03:58;108.63;;;56.25;;
52738;SDS011;52466;40.122;18.318;2022-09-25T05:07:06;110.38;;;56.33;;
52738;SDS011;52466;40.122;18.318;2022-09-25T05:10:14;107.53;;;56.25;;
52738;SDS011;52466;40.122;18.318;2022-09-25T05:13:21;107.68;;;56.50;;
52738;SDS011;52466;40.122;18.318;2022-09-25T05:16:29;106.25;;;56.10;;
52738;SDS011;52466;40.122;18.318;2022-09-25T05:19:37;109.75;;;56.70;;
52738;SDS011;52466;40.122;18.318;2022-09-25T05:22:45;109.60;;;56.83;;
52738;SDS011;52466;40.122;18.318;2022-09-25T05:25:53;109.60;;;56.75;;
52738;SDS011;52466;40.122;18.318;2022-09-25T05:29:04;111.75;;;57.33;;
52738;SDS011;52466;40.122;18.318;2022-09-25T05:32:11;116.05;;;57.53;;
52738;SDS011;52466;40.122;18.318;2022-09-25T05:35:20;111.65;;;57.25;;
52738;SDS011;52466;40.122;18.318;2022-09-25T05:38:33;114.07;;;57.75;;
52738;SDS011;52466;40.122;18.318;2022-09-25T05:41:42;111.57;;;56.60;;
52738;SDS011;52466;40.122;18.318;2022-09-25T05:44:50;113.45;;;57.28;;
52738;SDS011;52466;40.122;18.318;2022-09-25T05:47:58;110.15;;;57.50;;
52738;SDS011;52466;40.122;18.318;2022-09-25T05:51:10;109.53;;;57.58;;
52738;SDS011;52466;40.122;18.318;2022-09-25T05:54:18;110.75;;;57.40;;
52738;SDS011;52466;40.122;18.318;2022-09-25T05:57:25;117.55;;;57.53;;
52738;SDS011;52466;40.122;18.318;2022-09-25T06:00:34;111.22;;;57.42;;
52738;SDS011;52466;40.122;18.318;2022-09-25T06:03:42;116.00;;;58.15;;
52738;SDS011;52466;40.122;18.318;2022-09-25T06:06:49;111.63;;;57.47;;
52738;SDS011;52466;40.122;18.318;2022-09-25T06:09:58;115.82;;;58.22;;
52738;SDS011;52466;40.122;18.318;2022-09-25T06:13:06;115.88;;;58.92;;
52738;SDS011;52466;40.122;18.318;2022-09-25T06:16:14;115.28;;;58.67;;
52738;SDS011;52466;40.122;18.318;2022-09-25T06:19:25;116.05;;;59.17;;
52738;SDS011;52466;40.122;18.318;2022-09-25T06:22:35;118.10;;;59.15;;
52738;SDS011;52466;40.122;18.318;2022-09-25T06:25:44;119.88;;;59.58;;
52738;SDS011;52466;40.122;18.318;2022-09-25T06:28:51;118.00;;;59.25;;
52738;SDS011;52466;40.122;18.318;2022-09-25T06:31:59;116.43;;;58.95;;
52738;SDS011;52466;40.122;18.318;2022-09-25T06:35:07;117.88;;;58.80;;
52738;SDS011;52466;40.122;18.318;2022-09-25T06:38:15;116.50;;;58.67;;
52738;SDS011;52466;40.122;18.318;2022-09-25T06:41:23;122.22;;;59.35;;
52738;SDS011;52466;40.122;18.318;2022-09-25T06:44:30;120.13;;;59.33;;
52738;SDS011;52466;40.122;18.318;2022-09-25T06:47:38;119.32;;;59.20;;
52738;SDS011;52466;40.122;18.318;2022-09-25T06:50:49;119.32;;;59.08;;
52738;SDS011;52466;40.122;18.318;2022-09-25T06:53:58;122.70;;;59.92;;
52738;SDS011;52466;40.122;18.318;2022-09-25T06:57:06;117.93;;;59.05;;
52738;SDS011;52466;40.122;18.318;2022-09-25T07:00:15;123.50;;;60.38;;
52738;SDS011;52466;40.122;18.318;2022-09-25T07:03:23;121.88;;;61.10;;
52738;SDS011;52466;40.122;18.318;2022-09-25T07:06:49;120.28;;;60.33;;
52738;SDS011;52466;40.122;18.318;2022-09-25T07:10:00;194.60;;;91.68;;
52738;SDS011;52466;40.122;18.318;2022-09-25T07:13:07;131.55;;;69.60;;
52738;SDS011;52466;40.122;18.318;2022-09-25T07:16:16;122.68;;;61.13;;
52738;SDS011;52466;40.122;18.318;2022-09-25T07:19:24;134.88;;;64.43;;
52738;SDS011;52466;40.122;18.318;2022-09-25T07:22:32;126.68;;;63.60;;
52738;SDS011;52466;40.122;18.318;2022-09-25T07:25:40;141.68;;;69.43;;
52738;SDS011;52466;40.122;18.318;2022-09-25T07:28:51;123.47;;;60.92;;
52738;SDS011;52466;40.122;18.318;2022-09-25T07:32:04;126.20;;;61.42;;
52738;SDS011;52466;40.122;18.318;2022-09-25T07:35:11;129.18;;;63.85;;
52738;SDS011;52466;40.122;18.318;2022-09-25T07:38:19;122.18;;;60.55;;
52738;SDS011;52466;40.122;18.318;2022-09-25T07:41:28;131.15;;;63.03;;
52738;SDS011;52466;40.122;18.318;2022-09-25T07:44:36;125.53;;;60.70;;
52738;SDS011;52466;40.122;18.318;2022-09-25T07:47:43;124.15;;;61.08;;
52738;SDS011;52466;40.122;18.318;2022-09-25T07:50:51;128.18;;;63.17;;
52738;SDS011;52466;40.122;18.318;2022-09-25T07:54:01;131.35;;;63.20;;
52738;SDS011;52466;40.122;18.318;2022-09-25T07:57:09;126.25;;;63.92;;
52738;SDS011;52466;40.122;18.318;2022-09-25T08:00:17;122.50;;;61.22;;
52738;SDS011;52466;40.122;18.318;2022-09-25T08:03:25;120.68;;;60.00;;
52738;SDS011;52466;40.122;18.318;2022-09-25T08:06:33;125.68;;;60.75;;
52738;SDS011;52466;40.122;18.318;2022-09-25T08:09:41;122.70;;;60.58;;
52738;SDS011;52466;40.122;18.318;2022-09-25T08:12:49;124.15;;;60.10;;
52738;SDS011;52466;40.122;18.318;2022-09-25T08:15:58;124.90;;;59.67;;
52738;SDS011;52466;40.122;18.318;2022-09-25T08:19:09;123.97;;;60.53;;
52738;SDS011;52466;40.122;18.318;2022-09-25T08:22:17;125.63;;;61.72;;
52738;SDS011;52466;40.122;18.318;2022-09-25T08:25:25;124.20;;;60.35;;
52738;SDS011;52466;40.122;18.318;2022-09-25T08:28:32;127.68;;;61.30;;
52738;SDS011;52466;40.122;18.318;2022-09-25T08:31:40;124.68;;;60.17;;
52738;SDS011;52466;40.122;18.318;2022-09-25T08:34:48;127.82;;;63.63;;
52738;SDS011;52466;40.122;18.318;2022-09-25T08:37:56;183.05;;;103.95;;
52738;SDS011;52466;40.122;18.318;2022-09-25T08:41:08;191.82;;;102.05;;
52738;SDS011;52466;40.122;18.318;2022-09-25T08:44:35;193.82;;;102.47;;
52738;SDS011;52466;40.122;18.318;2022-09-25T08:47:44;214.70;;;112.93;;
52738;SDS011;52466;40.122;18.318;2022-09-25T08:51:12;136.85;;;68.82;;
52738;SDS011;52466;40.122;18.318;2022-09-25T08:54:24;125.38;;;63.25;;
52738;SDS011;52466;40.122;18.318;2022-09-25T08:57:35;127.07;;;64.55;;
52738;SDS011;52466;40.122;18.318;2022-09-25T09:00:48;120.47;;;60.22;;
52738;SDS011;52466;40.122;18.318;2022-09-25T09:04:06;123.88;;;59.95;;
52738;SDS011;52466;40.122;18.318;2022-09-25T09:07:26;122.75;;;61.13;;
52738;SDS011;52466;40.122;18.318;2022-09-25T09:10:50;122.88;;;60.10;;
52738;SDS011;52466;40.122;18.318;2022-09-25T09:14:12;121.55;;;59.88;;
52738;SDS011;52466;40.122;18.318;2022-09-25T09:17:23;119.93;;;58.80;;
52738;SDS011;52466;40.122;18.318;2022-09-25T09:20:37;120.57;;;59.28;;
52738;SDS011;52466;40.122;18.318;2022-09-25T09:31:59;123.32;;;59.17;;
52738;SDS011;52466;40.122;18.318;2022-09-25T09:42:23;118.30;;;59.13;;
52738;SDS011;52466;40.122;18.318;2022-09-25T09:45:44;119.63;;;58.85;;
52738;SDS011;52466;40.122;18.318;2022-09-25T09:49:31;121.53;;;58.85;;
52738;SDS011;52466;40.122;18.318;2022-09-25T09:53:34;123.75;;;59.15;;
52738;SDS011;52466;40.122;18.318;2022-09-25T09:56:38;121.93;;;58.67;;
52738;SDS011;52466;40.122;18.318;2022-09-25T09:59:55;121.75;;;59.08;;
52738;SDS011;52466;40.122;18.318;2022-09-25T10:06:31;125.03;;;58.53;;
52738;SDS011;52466;40.122;18.318;2022-09-25T10:09:43;122.30;;;58.40;;
52738;SDS011;52466;40.122;18.318;2022-09-25T10:12:52;122.75;;;58.53;;
52738;SDS011;52466;40.122;18.318;2022-09-25T10:19:41;123.93;;;58.92;;
52738;SDS011;52466;40.122;18.318;2022-09-25T10:22:55;120.47;;;58.75;;
52738;SDS011;52466;40.122;18.318;2022-09-25T10:26:22;121.43;;;58.78;;
52738;SDS011;52466;40.122;18.318;2022-09-25T10:29:32;120.22;;;58.70;;
52738;SDS011;52466;40.122;18.318;2022-09-25T10:36:02;121.63;;;58.75;;
52738;SDS011;52466;40.122;18.318;2022-09-25T10:39:29;120.78;;;58.83;;
52738;SDS011;52466;40.122;18.318;2022-09-25T10:42:39;121.50;;;58.75;;
52738;SDS011;52466;40.122;18.318;2022-09-25T10:45:48;120.35;;;58.42;;
52738;SDS011;52466;40.122;18.318;2022-09-25T10:49:17;122.88;;;58.38;;
52738;SDS011;52466;40.122;18.318;2022-09-25T10:52:52;125.60;;;58.60;;
52738;SDS011;52466;40.122;18.318;2022-09-25T10:56:05;121.65;;;58.50;;
52738;SDS011;52466;40.122;18.318;2022-09-25T10:59:18;123.55;;;58.40;;
52738;SDS011;52466;40.122;18.318;2022-09-25T11:02:33;123.38;;;58.47;;
52738;SDS011;52466;40.122;18.318;2022-09-25T11:05:51;123.43;;;58.45;;
52738;SDS011;52466;40.122;18.318;2022-09-25T11:09:03;126.32;;;58.95;;
52738;SDS011;52466;40.122;18.318;2022-09-25T11:12:12;119.93;;;58.47;;
52738;SDS011;52466;40.122;18.318;2022-09-25T11:15:25;121.53;;;58.42;;
52738;SDS011;52466;40.122;18.318;2022-09-25T11:21:46;121.75;;;58.55;;
52738;SDS011;52466;40.122;18.318;2022-09-25T11:42:23;128.10;;;59.17;;
52738;SDS011;52466;40.122;18.318;2022-09-25T11:59:36;123.88;;;58.75;;
52738;SDS011;52466;40.122;18.318;2022-09-25T12:13:33;119.50;;;58.83;;
52738;SDS011;52466;40.122;18.318;2022-09-25T12:20:32;122.20;;;59.17;;
52738;SDS011;52466;40.122;18.318;2022-09-25T12:23:53;121.78;;;58.92;;
52738;SDS011;52466;40.122;18.318;2022-09-25T12:27:10;120.28;;;58.42;;
52738;SDS011;52466;40.122;18.318;2022-09-25T12:30:33;121.78;;;59.00;;
52738;SDS011;52466;40.122;18.318;2022-09-25T12:33:58;120.30;;;58.63;;
52738;SDS011;52466;40.122;18.318;2022-09-25T12:37:42;124.22;;;59.20;;
52738;SDS011;52466;40.122;18.318;2022-09-25T12:40:55;125.05;;;58.72;;
52738;SDS011;52466;40.122;18.318;2022-09-25T12:44:16;120.05;;;58.63;;
52738;SDS011;52466;40.122;18.318;2022-09-25T12:57:45;123.88;;;58.83;;
52738;SDS011;52466;40.122;18.318;2022-09-25T13:01:13;121.68;;;58.95;;
52738;SDS011;52466;40.122;18.318;2022-09-25T13:08:13;120.97;;;58.75;;
52738;SDS011;52466;40.122;18.318;2022-09-25T13:11:31;120.95;;;58.65;;
52738;SDS011;52466;40.122;18.318;2022-09-25T13:14:58;128.82;;;59.83;;
52738;SDS011;52466;40.122;18.318;2022-09-25T13:18:15;120.55;;;58.53;;
52738;SDS011;52466;40.122;18.318;2022-09-25T13:24:57;119.78;;;58.83;;
52738;SDS011;52466;40.122;18.318;2022-09-25T13:28:13;124.20;;;59.13;;
52738;SDS011;52466;40.122;18.318;2022-09-25T13:31:26;125.30;;;58.00;;
52738;SDS011;52466;40.122;18.318;2022-09-25T13:34:43;121.40;;;58.55;;
52738;SDS011;52466;40.122;18.318;2022-09-25T13:37:53;120.25;;;58.38;;
52738;SDS011;52466;40.122;18.318;2022-09-25T13:41:10;119.57;;;58.65;;
52738;SDS011;52466;40.122;18.318;2022-09-25T13:47:58;118.40;;;58.53;;
52738;SDS011;52466;40.122;18.318;2022-09-25T13:54:28;119.95;;;58.20;;
52738;SDS011;52466;40.122;18.318;2022-09-25T14:01:36;121.95;;;58.13;;
52738;SDS011;52466;40.122;18.318;2022-09-25T14:04:44;123.10;;;58.50;;
52738;SDS011;52466;40.122;18.318;2022-09-25T14:07:55;123.18;;;58.42;;
52738;SDS011;52466;40.122;18.318;2022-09-25T14:11:08;118.70;;;58.08;;
52738;SDS011;52466;40.122;18.318;2022-09-25T14:14:23;118.40;;;58.50;;
52738;SDS011;52466;40.122;18.318;2022-09-25T14:17:39;125.88;;;58.55;;
52738;SDS011;52466;40.122;18.318;2022-09-25T14:20:50;120.53;;;58.35;;
52738;SDS011;52466;40.122;18.318;2022-09-25T14:24:11;120.80;;;58.25;;
52738;SDS011;52466;40.122;18.318;2022-09-25T14:27:27;120.93;;;58.47;;
52738;SDS011;52466;40.122;18.318;2022-09-25T14:30:35;120.20;;;58.60;;
52738;SDS011;52466;40.122;18.318;2022-09-25T14:40:55;120.20;;;58.35;;
52738;SDS011;52466;40.122;18.318;2022-09-25T14:47:58;119.88;;;58.35;;
52738;SDS011;52466;40.122;18.318;2022-09-25T14:51:11;118.18;;;58.38;;
52738;SDS011;52466;40.122;18.318;2022-09-25T14:54:27;118.20;;;58.05;;
52738;SDS011;52466;40.122;18.318;2022-09-25T14:57:39;120.30;;;58.95;;
52738;SDS011;52466;40.122;18.318;2022-09-25T15:00:48;117.93;;;58.75;;
52738;SDS011;52466;40.122;18.318;2022-09-25T15:04:03;118.65;;;58.50;;
52738;SDS011;52466;40.122;18.318;2022-09-25T15:07:16;118.97;;;58.75;;
52738;SDS011;52466;40.122;18.318;2022-09-25T15:13:42;119.43;;;59.03;;
52738;SDS011;52466;40.122;18.318;2022-09-25T15:16:50;119.93;;;58.72;;
52738;SDS011;52466;40.122;18.318;2022-09-25T15:20:20;117.80;;;58.83;;
52738;SDS011;52466;40.122;18.318;2022-09-25T15:23:30;116.95;;;58.42;;
52738;SDS011;52466;40.122;18.318;2022-09-25T15:26:39;119.55;;;58.42;;
52738;SDS011;52466;40.122;18.318;2022-09-25T15:29:55;118.05;;;58.15;;
52738;SDS011;52466;40.122;18.318;2022-09-25T15:33:19;122.07;;;58.60;;
52738;SDS011;52466;40.122;18.318;2022-09-25T15:36:28;116.88;;;58.70;;
52738;SDS011;52466;40.122;18.318;2022-09-25T15:39:40;122.50;;;59.05;;
52738;SDS011;52466;40.122;18.318;2022-09-25T15:42:44;125.35;;;63.03;;
52738;SDS011;52466;40.122;18.318;2022-09-25T15:52:47;118.47;;;59.38;;
52738;SDS011;52466;40.122;18.318;2022-09-25T15:56:04;120.82;;;60.78;;
52738;SDS011;52466;40.122;18.318;2022-09-25T15:59:21;120.25;;;59.50;;
52738;SDS011;52466;40.122;18.318;2022-09-25T16:03:03;119.45;;;58.65;;
52738;SDS011;52466;40.122;18.318;2022-09-25T16:06:40;119.45;;;59.08;;
52738;SDS011;52466;40.122;18.318;2022-09-25T16:09:50;120.25;;;58.85;;
52738;SDS011;52466;40.122;18.318;2022-09-25T16:12:59;118.57;;;58.60;;
52738;SDS011;52466;40.122;18.318;2022-09-25T16:19:33;116.38;;;58.42;;
52738;SDS011;52466;40.122;18.318;2022-09-25T16:22:44;119.43;;;60.08;;
52738;SDS011;52466;40.122;18.318;2022-09-25T16:25:54;117.47;;;58.53;;
52738;SDS011;52466;40.122;18.318;2022-09-25T16:32:19;121.10;;;59.15;;
52738;SDS011;52466;40.122;18.318;2022-09-25T16:35:32;123.90;;;58.90;;
52738;SDS011;52466;40.122;18.318;2022-09-25T16:38:42;120.22;;;58.92;;
52738;SDS011;52466;40.122;18.318;2022-09-25T16:45:56;118.10;;;58.38;;
52738;SDS011;52466;40.122;18.318;2022-09-25T16:49:07;118.30;;;58.75;;
52738;SDS011;52466;40.122;18.318;2022-09-25T16:52:16;119.38;;;58.83;;
52738;SDS011;52466;40.122;18.318;2022-09-25T16:55:28;122.07;;;58.88;;
52738;SDS011;52466;40.122;18.318;2022-09-25T16:58:36;117.82;;;58.72;;
52738;SDS011;52466;40.122;18.318;2022-09-25T17:01:44;119.75;;;59.30;;
52738;SDS011;52466;40.122;18.318;2022-09-25T17:04:57;120.40;;;58.92;;
52738;SDS011;52466;40.122;18.318;2022-09-25T17:08:15;121.25;;;58.88;;
52738;SDS011;52466;40.122;18.318;2022-09-25T17:11:26;120.68;;;58.92;;
52738;SDS011;52466;40.122;18.318;2022-09-25T17:14:42;120.05;;;58.58;;
52738;SDS011;52466;40.122;18.318;2022-09-25T17:17:51;117.78;;;58.70;;
52738;SDS011;52466;40.122;18.318;2022-09-25T17:21:03;120.32;;;59.67;;
52738;SDS011;52466;40.122;18.318;2022-09-25T17:24:17;120.68;;;59.60;;
52738;SDS011;52466;40.122;18.318;2022-09-25T17:27:26;124.78;;;59.08;;
52738;SDS011;52466;40.122;18.318;2022-09-25T17:30:33;121.10;;;59.63;;
52738;SDS011;52466;40.122;18.318;2022-09-25T17:33:42;123.95;;;58.95;;
52738;SDS011;52466;40.122;18.318;2022-09-25T17:37:01;121.28;;;58.60;;
52738;SDS011;52466;40.122;18.318;2022-09-25T17:40:09;119.40;;;59.05;;
52738;SDS011;52466;40.122;18.318;2022-09-25T17:43:16;120.80;;;60.22;;
52738;SDS011;52466;40.122;18.318;2022-09-25T17:46:25;119.28;;;59.53;;
52738;SDS011;52466;40.122;18.318;2022-09-25T17:49:33;124.25;;;59.30;;
52738;SDS011;52466;40.122;18.318;2022-09-25T17:52:41;118.25;;;58.47;;
52738;SDS011;52466;40.122;18.318;2022-09-25T17:55:48;122.93;;;59.60;;
52738;SDS011;52466;40.122;18.318;2022-09-25T17:58:56;122.68;;;59.13;;
52738;SDS011;52466;40.122;18.318;2022-09-25T18:02:04;124.15;;;59.42;;
52738;SDS011;52466;40.122;18.318;2022-09-25T18:05:20;121.60;;;59.80;;
52738;SDS011;52466;40.122;18.318;2022-09-25T18:08:28;119.55;;;59.97;;
52738;SDS011;52466;40.122;18.318;2022-09-25T18:11:36;126.05;;;61.42;;
52738;SDS011;52466;40.122;18.318;2022-09-25T18:14:48;132.20;;;62.45;;
52738;SDS011;52466;40.122;18.318;2022-09-25T18:18:15;134.38;;;65.80;;
52738;SDS011;52466;40.122;18.318;2022-09-25T18:21:23;138.50;;;66.13;;
52738;SDS011;52466;40.122;18.318;2022-09-25T18:24:50;127.18;;;64.60;;
52738;SDS011;52466;40.122;18.318;2022-09-25T18:28:02;122.78;;;62.03;;
52738;SDS011;52466;40.122;18.318;2022-09-25T18:31:09;127.03;;;61.10;;
52738;SDS011;52466;40.122;18.318;2022-09-25T18:34:22;122.00;;;60.00;;
52738;SDS011;52466;40.122;18.318;2022-09-25T18:37:31;118.07;;;58.90;;
52738;SDS011;52466;40.122;18.318;2022-09-25T18:40:39;123.97;;;59.63;;
52738;SDS011;52466;40.122;18.318;2022-09-25T18:43:47;117.10;;;58.80;;
52738;SDS011;52466;40.122;18.318;2022-09-25T18:46:54;124.85;;;59.35;;
52738;SDS011;52466;40.122;18.318;2022-09-25T18:50:02;122.45;;;59.33;;
52738;SDS011;52466;40.122;18.318;2022-09-25T18:53:10;121.50;;;59.10;;
52738;SDS011;52466;40.122;18.318;2022-09-25T18:56:18;124.35;;;59.88;;
52738;SDS011;52466;40.122;18.318;2022-09-25T18:59:27;118.55;;;59.05;;
52738;SDS011;52466;40.122;18.318;2022-09-25T19:02:35;124.55;;;59.45;;
52738;SDS011;52466;40.122;18.318;2022-09-25T19:05:53;123.13;;;59.45;;
52738;SDS011;52466;40.122;18.318;2022-09-25T19:09:02;125.20;;;59.85;;
52738;SDS011;52466;40.122;18.318;2022-09-25T19:12:10;123.00;;;59.05;;
52738;SDS011;52466;40.122;18.318;2022-09-25T19:15:23;122.18;;;59.05;;
52738;SDS011;52466;40.122;18.318;2022-09-25T19:18:30;123.68;;;59.10;;
52738;SDS011;52466;40.122;18.318;2022-09-25T19:21:38;121.63;;;59.13;;
52738;SDS011;52466;40.122;18.318;2022-09-25T19:24:50;121.40;;;58.95;;
52738;SDS011;52466;40.122;18.318;2022-09-25T19:28:02;118.50;;;59.03;;
52738;SDS011;52466;40.122;18.318;2022-09-25T19:31:12;120.88;;;58.90;;
52738;SDS011;52466;40.122;18.318;2022-09-25T19:34:22;122.68;;;59.40;;
52738;SDS011;52466;40.122;18.318;2022-09-25T19:37:29;123.20;;;58.63;;
52738;SDS011;52466;40.122;18.318;2022-09-25T19:40:38;121.75;;;59.17;;
52738;SDS011;52466;40.122;18.318;2022-09-25T19:44:12;121.82;;;59.63;;
52738;SDS011;52466;40.122;18.318;2022-09-25T19:47:21;123.95;;;59.58;;
52738;SDS011;52466;40.122;18.318;2022-09-25T19:50:29;126.10;;;59.92;;
52738;SDS011;52466;40.122;18.318;2022-09-25T19:53:37;124.45;;;60.00;;
52738;SDS011;52466;40.122;18.318;2022-09-25T19:56:46;124.30;;;59.65;;
52738;SDS011;52466;40.122;18.318;2022-09-25T19:59:54;125.18;;;59.75;;
52738;SDS011;52466;40.122;18.318;2022-09-25T20:03:01;129.30;;;60.38;;
52738;SDS011;52466;40.122;18.318;2022-09-25T20:06:09;126.70;;;59.83;;
52738;SDS011;52466;40.122;18.318;2022-09-25T20:09:18;128.27;;;59.78;;
52738;SDS011;52466;40.122;18.318;2022-09-25T20:12:25;122.55;;;60.00;;
52738;SDS011;52466;40.122;18.318;2022-09-25T20:15:33;131.20;;;59.95;;
52738;SDS011;52466;40.122;18.318;2022-09-25T20:18:41;128.68;;;60.78;;
52738;SDS011;52466;40.122;18.318;2022-09-25T20:21:49;128.43;;;60.00;;
52738;SDS011;52466;40.122;18.318;2022-09-25T20:24:58;119.95;;;59.45;;
52738;SDS011;52466;40.122;18.318;2022-09-25T20:28:06;121.28;;;59.90;;
52738;SDS011;52466;40.122;18.318;2022-09-25T20:31:17;128.77;;;60.92;;
52738;SDS011;52466;40.122;18.318;2022-09-25T20:34:25;132.20;;;61.10;;
52738;SDS011;52466;40.122;18.318;2022-09-25T20:37:32;132.82;;;60.90;;
52738;SDS011;52466;40.122;18.318;2022-09-25T20:40:40;131.68;;;61.13;;
52738;SDS011;52466;40.122;18.318;2022-09-25T20:43:51;123.88;;;61.20;;
52738;SDS011;52466;40.122;18.318;2022-09-25T20:47:01;126.10;;;60.93;;
52738;SDS011;52466;40.122;18.318;2022-09-25T20:50:08;129.98;;;61.35;;